createdAt,value
2024-05-09T00:00:36.342Z,99921.66
2024-05-09T00:03:08.403Z,99898.53
2024-05-09T00:05:36.825Z,99896.81
2024-05-09T00:08:04.471Z,99894.19
2024-05-09T00:10:36.389Z,99914.72
2024-05-09T00:13:06.288Z,99921.56
2024-05-09T00:15:33.977Z,99911.25
2024-05-09T00:18:01.391Z,99911.25
2024-05-09T00:20:36.462Z,99913.84
2024-05-09T00:23:10.911Z,99910.41
2024-05-09T00:25:38.748Z,99914.69
2024-05-09T00:28:06.160Z,99890.69
2024-05-09T00:30:35.783Z,99911.28
2024-05-09T00:33:08.993Z,99898.44
2024-05-09T00:35:36.976Z,99905.28
2024-05-09T00:38:04.211Z,99901.00
2024-05-09T00:40:41.859Z,99895.03
2024-05-09T00:43:11.387Z,99897.59
2024-05-09T00:45:38.546Z,99886.41
2024-05-09T00:48:08.649Z,99882.16
2024-05-09T00:50:38.914Z,99903.56
2024-05-09T00:53:06.834Z,99904.41
2024-05-09T00:55:35.964Z,99898.44
2024-05-09T00:58:04.601Z,99907.00
2024-05-09T01:00:38.234Z,99906.16
2024-05-09T01:03:07.526Z,99892.47
2024-05-09T01:05:35.058Z,99882.19
2024-05-09T01:08:02.984Z,99897.59
2024-05-09T01:10:34.468Z,99907.84
2024-05-09T01:13:03.541Z,99908.69
2024-05-09T01:15:30.285Z,99909.56
2024-05-09T01:17:57.861Z,99907.00
2024-05-09T01:20:36.460Z,99907.00
2024-05-09T01:23:09.026Z,99901.00
2024-05-09T01:25:36.021Z,99901.88
2024-05-09T01:28:02.676Z,99901.91
2024-05-09T01:30:34.692Z,99901.06
2024-05-09T01:33:04.486Z,99883.06
2024-05-09T01:35:31.664Z,99900.25
2024-05-09T01:37:58.343Z,99895.97
2024-05-09T01:40:33.759Z,99889.13
2024-05-09T01:43:04.892Z,99871.94
2024-05-09T01:45:31.828Z,99887.41
2024-05-09T01:47:58.784Z,99892.53
2024-05-09T01:50:37.008Z,99894.25
2024-05-09T01:53:07.696Z,99883.97
2024-05-09T01:55:34.473Z,99901.09
2024-05-09T01:58:01.139Z,99894.25
2024-05-09T02:00:37.950Z,99905.38
2024-05-09T02:03:15.527Z,99895.97
2024-05-09T02:05:48.059Z,99904.53
2024-05-09T02:08:17.325Z,99894.25
2024-05-09T02:10:45.225Z,99896.81
2024-05-09T02:13:13.047Z,99898.53
2024-05-09T02:15:39.770Z,99898.53
2024-05-09T02:18:08.149Z,99901.97
2024-05-09T02:20:36.946Z,99900.25
2024-05-09T02:23:06.304Z,99898.53
2024-05-09T02:25:33.427Z,99883.13
2024-05-09T02:28:00.300Z,99899.41
2024-05-09T02:30:37.705Z,99897.69
2024-05-09T02:33:08.389Z,99894.28
2024-05-09T02:35:35.993Z,99876.28
2024-05-09T02:38:03.263Z,99901.09
2024-05-09T02:40:36.667Z,99897.69
2024-05-09T02:43:10.429Z,99906.25
2024-05-09T02:45:38.560Z,99904.53
2024-05-09T02:48:06.628Z,99904.50
2024-05-09T02:50:38.360Z,99899.38
2024-05-09T02:53:08.126Z,99893.38
2024-05-09T02:55:35.131Z,99891.69
2024-05-09T02:58:01.842Z,99896.78
2024-05-09T03:00:36.886Z,99891.66
2024-05-09T03:03:08.617Z,99893.38
2024-05-09T03:05:36.958Z,99897.66
2024-05-09T03:08:04.178Z,99893.38
2024-05-09T03:10:35.963Z,99898.53
2024-05-09T03:13:07.888Z,99905.38
2024-05-09T03:15:34.651Z,99913.94
2024-05-09T03:18:01.601Z,99909.66
2024-05-09T03:20:33.869Z,99907.97
2024-05-09T03:23:02.567Z,99885.69
2024-05-09T03:25:29.373Z,99908.81
2024-05-09T03:27:56.026Z,99906.25
2024-05-09T03:30:35.821Z,99901.09
2024-05-09T03:33:15.360Z,99906.25
2024-05-09T03:35:45.765Z,99910.53
2024-05-09T03:38:12.619Z,99907.94
2024-05-09T03:40:50.434Z,99892.53
2024-05-09T03:43:18.169Z,99914.78
2024-05-09T03:45:45.742Z,99912.25
2024-05-09T03:48:13.166Z,99913.09
2024-05-09T03:50:40.268Z,99909.66
2024-05-09T03:53:11.080Z,99892.53
2024-05-09T03:55:37.985Z,99904.50
2024-05-09T03:58:05.039Z,99920.81
2024-05-09T04:00:37.735Z,99912.22
2024-05-09T04:03:09.001Z,99865.13
2024-05-09T04:05:39.690Z,99918.19
2024-05-09T04:08:07.078Z,99919.03
2024-05-09T04:10:35.016Z,99918.19
2024-05-09T04:13:03.507Z,99923.34
2024-05-09T04:15:30.684Z,99926.75
2024-05-09T04:17:57.636Z,99922.47
2024-05-09T04:20:33.890Z,99916.47
2024-05-09T04:23:07.004Z,99939.56
2024-05-09T04:25:34.386Z,99930.16
2024-05-09T04:28:01.144Z,99941.28
2024-05-09T04:30:36.455Z,99942.13
2024-05-09T04:33:08.120Z,99942.16
2024-05-09T04:35:36.826Z,99945.59
2024-05-09T04:38:05.339Z,99942.16
2024-05-09T04:40:35.452Z,99949.00
2024-05-09T04:43:04.473Z,99948.16
2024-05-09T04:45:31.235Z,99942.13
2024-05-09T04:47:58.446Z,99952.41
2024-05-09T04:50:33.511Z,99949.84
2024-05-09T04:53:04.942Z,99958.41
2024-05-09T04:55:32.345Z,99954.16
2024-05-09T04:57:58.930Z,99953.28
2024-05-09T05:00:34.466Z,99960.09
2024-05-09T05:03:07.389Z,99961.78
2024-05-09T05:05:40.208Z,99966.88
2024-05-09T05:08:14.575Z,99957.44
2024-05-09T05:10:42.825Z,99963.50
2024-05-09T05:13:18.376Z,99945.50
2024-05-09T05:15:46.560Z,99947.22
2024-05-09T05:18:14.881Z,99966.00
2024-05-09T05:20:42.261Z,99965.09
2024-05-09T05:23:12.399Z,99971.94
2024-05-09T05:25:39.728Z,99974.44
2024-05-09T05:28:06.644Z,99974.44
2024-05-09T05:30:35.272Z,99968.41
2024-05-09T05:33:02.358Z,99976.91
2024-05-09T05:35:29.282Z,99978.66
2024-05-09T05:37:56.120Z,99978.66
2024-05-09T05:40:32.104Z,99981.28
2024-05-09T05:43:03.794Z,99970.06
2024-05-09T05:45:30.479Z,99969.19
2024-05-09T05:47:57.267Z,100004.34
2024-05-09T05:50:31.917Z,99982.94
2024-05-09T05:53:03.554Z,100001.75
2024-05-09T05:55:30.332Z,99995.75
2024-05-09T05:57:58.043Z,99993.13
2024-05-09T06:00:30.284Z,100006.88
2024-05-09T06:03:05.073Z,100006.81
2024-05-09T06:05:32.515Z,100005.16
2024-05-09T06:07:59.592Z,100010.34
2024-05-09T06:10:34.808Z,100001.72
2024-05-09T06:13:05.513Z,100005.78
2024-05-09T06:15:32.156Z,100009.06
2024-05-09T06:17:59.256Z,100004.69
2024-05-09T06:20:34.648Z,100008.81
2024-05-09T06:23:04.413Z,100004.50
2024-05-09T06:25:31.411Z,100004.31
2024-05-09T06:27:59.101Z,100012.53
2024-05-09T06:30:34.463Z,100014.91
2024-05-09T06:33:06.226Z,100005.19
2024-05-09T06:35:34.037Z,100013.59
2024-05-09T06:38:01.020Z,100017.03
2024-05-09T06:40:37.198Z,100018.75
2024-05-09T06:43:18.639Z,100018.59
2024-05-09T06:45:48.244Z,100027.09
2024-05-09T06:48:17.641Z,100015.78
2024-05-09T06:50:44.504Z,100019.94
2024-05-09T06:53:14.314Z,100025.25
2024-05-09T06:55:41.006Z,100020.25
2024-05-09T06:58:09.209Z,100014.22
2024-05-09T07:00:39.663Z,100016.59
2024-05-09T07:03:09.383Z,100024.41
2024-05-09T07:05:36.492Z,100011.66
2024-05-09T07:08:04.455Z,100020.06
2024-05-09T07:10:35.054Z,100025.81
2024-05-09T07:13:02.687Z,100034.19
2024-05-09T07:15:29.251Z,100033.28
2024-05-09T07:17:57.424Z,100021.38
2024-05-09T07:20:34.657Z,100017.94
2024-05-09T07:23:05.236Z,100026.66
2024-05-09T07:25:37.592Z,100031.88
2024-05-09T07:28:04.604Z,100033.88
2024-05-09T07:30:34.322Z,100033.16
2024-05-09T07:33:02.929Z,100032.38
2024-05-09T07:35:30.774Z,100036.03
2024-05-09T07:37:57.935Z,99994.97
2024-05-09T07:40:32.862Z,100030.03
2024-05-09T07:43:07.206Z,100030.94
2024-05-09T07:52:23.794Z,100020.53
2024-05-09T07:53:38.943Z,100038.41
2024-05-09T07:56:09.398Z,100032.34
2024-05-09T07:58:36.896Z,100032.19
2024-05-09T08:01:03.801Z,100038.41
2024-05-09T08:03:31.001Z,100036.41
2024-05-09T08:05:57.708Z,100038.91
2024-05-09T08:08:24.358Z,100035.59
2024-05-09T08:10:51.668Z,100039.59
2024-05-09T08:13:18.456Z,100036.13
2024-05-09T08:15:45.338Z,100034.94
2024-05-09T08:18:14.336Z,100049.63
2024-05-09T08:20:42.290Z,100046.78
2024-05-09T08:23:08.895Z,100035.59
2024-05-09T08:25:35.557Z,100050.44
2024-05-09T08:28:04.639Z,100037.25
2024-05-09T08:30:36.634Z,100046.13
2024-05-09T08:33:05.968Z,100045.84
2024-05-09T08:35:33.567Z,100046.81
2024-05-09T08:38:06.052Z,100050.69
2024-05-09T08:40:36.225Z,100045.25
2024-05-09T08:43:09.297Z,100042.44
2024-05-09T08:45:39.037Z,99996.53
2024-05-09T08:48:08.374Z,100032.47
2024-05-09T08:50:40.151Z,100043.56
2024-05-09T09:00:43.983Z,100034.66
2024-05-09T09:03:15.467Z,100047.94
2024-05-09T09:05:48.903Z,100042.88
2024-05-09T09:08:16.167Z,100032.75
2024-05-09T09:10:43.462Z,100016.84
2024-05-09T09:13:11.315Z,100029.63
2024-05-09T09:16:00.065Z,100032.09
2024-05-09T09:18:28.016Z,100027.75
2024-05-09T09:20:55.236Z,100020.78
2024-05-09T09:23:22.246Z,100025.19
2024-05-09T09:25:49.051Z,100026.03
2024-05-09T09:28:16.283Z,100024.22
2024-05-09T09:30:43.518Z,100022.50
2024-05-09T09:33:11.417Z,100019.78
2024-05-09T09:35:40.778Z,100014.50
2024-05-09T09:38:11.127Z,100019.47
2024-05-09T09:40:44.972Z,100010.81
2024-05-09T09:43:19.658Z,100000.72
2024-05-09T09:45:47.012Z,100025.44
2024-05-09T09:48:15.331Z,100023.63
2024-05-09T09:50:42.530Z,100023.81
2024-05-09T09:53:10.332Z,100014.34
2024-05-09T09:55:37.877Z,100017.75
2024-05-09T09:58:05.875Z,100011.69
2024-05-09T10:00:34.349Z,100014.06
2024-05-09T10:03:01.957Z,100026.94
2024-05-09T10:05:30.299Z,100004.63
2024-05-09T10:08:00.317Z,100018.09
2024-05-09T10:10:31.808Z,100007.81
2024-05-09T10:13:07.386Z,100015.44
2024-05-09T10:15:47.123Z,99981.84
2024-05-09T10:18:14.909Z,100009.94
2024-05-09T10:20:46.223Z,100011.50
2024-05-09T10:23:29.943Z,99996.97
2024-05-09T10:26:07.367Z,100004.56
2024-05-09T10:28:44.091Z,99997.59
2024-05-09T10:31:13.313Z,99993.31
2024-05-09T10:33:52.402Z,99996.59
2024-05-09T10:36:21.953Z,99996.47
2024-05-09T10:38:49.661Z,99981.88
2024-05-09T10:41:17.210Z,99980.88
2024-05-09T10:43:44.541Z,99988.56
2024-05-09T10:46:12.102Z,99988.56
2024-05-09T10:48:44.177Z,99977.41
2024-05-09T10:51:11.632Z,99981.56
2024-05-09T10:53:42.466Z,99980.63
2024-05-09T10:56:09.795Z,99971.97
2024-05-09T10:58:36.906Z,99962.41
2024-05-09T11:01:06.770Z,99980.56
2024-05-09T11:03:34.890Z,99987.09
2024-05-09T11:06:01.995Z,99962.25
2024-05-09T11:08:30.302Z,99986.03
2024-05-09T11:10:57.192Z,99973.13
2024-05-09T11:13:37.494Z,99967.19
2024-05-09T11:16:06.288Z,99971.34
2024-05-09T11:18:37.811Z,99966.03
2024-05-09T11:21:14.193Z,99968.34
2024-05-09T11:23:41.454Z,99968.28
2024-05-09T11:26:09.194Z,99965.69
2024-05-09T11:28:35.956Z,99969.91
2024-05-09T11:31:10.608Z,99956.72
2024-05-09T11:33:39.420Z,99953.34
2024-05-09T11:36:07.223Z,99948.25
2024-05-09T11:38:33.975Z,99955.91
2024-05-09T11:41:00.621Z,99953.13
2024-05-09T11:43:27.274Z,99945.19
2024-05-09T11:45:54.722Z,99935.53
2024-05-09T11:48:21.583Z,99953.34
2024-05-09T11:50:48.265Z,99948.84
2024-05-09T11:53:15.030Z,99914.72
2024-05-09T11:55:41.664Z,99945.47
2024-05-09T11:58:08.538Z,99935.06
2024-05-09T12:00:37.535Z,99929.03
2024-05-09T12:03:05.863Z,99924.72
2024-05-09T12:05:33.962Z,99928.72
2024-05-09T12:08:01.295Z,99929.78
2024-05-09T12:10:33.301Z,99921.38
2024-05-09T12:13:03.138Z,99898.44
2024-05-09T12:15:30.945Z,99918.88
2024-05-09T12:18:00.061Z,99928.25
2024-05-09T12:20:35.633Z,99915.22
2024-05-09T12:23:05.563Z,99915.38
2024-05-09T12:25:32.264Z,99920.47
2024-05-09T12:27:59.053Z,99917.00
2024-05-09T12:30:35.314Z,99922.06
2024-05-09T12:33:06.166Z,99923.44
2024-05-09T12:35:33.189Z,99917.34
2024-05-09T12:38:00.070Z,99901.78
2024-05-09T12:40:34.812Z,99911.91
2024-05-09T12:43:05.078Z,99912.66
2024-05-09T12:45:31.984Z,99888.56
2024-05-09T12:47:58.917Z,99903.13
2024-05-09T12:50:31.993Z,99897.06
2024-05-09T12:53:01.316Z,99879.88
2024-05-09T12:55:29.758Z,99902.13
2024-05-09T12:57:58.814Z,99909.06
2024-05-09T13:00:31.684Z,99899.47
2024-05-09T13:03:01.067Z,99886.25
2024-05-09T13:05:28.443Z,99897.38
2024-05-09T13:07:56.864Z,99896.28
2024-05-09T13:10:31.131Z,99894.47
2024-05-09T13:13:00.552Z,99890.94
2024-05-09T13:15:27.742Z,99902.06
2024-05-09T13:17:56.411Z,99880.44
2024-05-09T13:20:31.630Z,99887.09
2024-05-09T13:23:02.392Z,99887.16
2024-05-09T13:25:29.269Z,99892.31
2024-05-09T13:27:56.963Z,99879.22
2024-05-09T13:30:29.872Z,99841.78
2024-05-09T13:33:06.375Z,99867.75
2024-05-09T13:35:35.421Z,99868.75
2024-05-09T13:38:02.903Z,99871.88
2024-05-09T13:40:33.914Z,99871.53
2024-05-09T13:43:03.229Z,99878.63
2024-05-09T13:45:30.227Z,99870.00
2024-05-09T13:47:57.242Z,99866.50
2024-05-09T13:50:32.958Z,99851.00
2024-05-09T13:53:02.556Z,99861.31
2024-05-09T13:55:29.156Z,99843.25
2024-05-09T13:57:56.214Z,99836.13
2024-05-09T14:00:37.343Z,99862.53
2024-05-09T14:03:10.086Z,99857.06
2024-05-09T14:05:37.057Z,99847.69
2024-05-09T14:08:04.163Z,99852.69
2024-05-09T14:10:32.163Z,99858.47
2024-05-09T14:13:00.266Z,99852.91
2024-05-09T14:15:27.052Z,99861.66
2024-05-09T14:17:54.685Z,99853.84
2024-05-09T14:22:50.876Z,99840.34
2024-05-09T14:25:17.619Z,99853.00
2024-05-09T14:27:44.344Z,99831.84
2024-05-09T14:30:18.246Z,99837.13
2024-05-09T14:32:52.736Z,99844.13
2024-05-09T14:35:19.554Z,99847.25
2024-05-09T14:37:46.176Z,99850.13
2024-05-09T14:40:30.318Z,99849.50
2024-05-09T14:43:03.188Z,99839.09
2024-05-09T14:45:30.222Z,99841.84
2024-05-09T14:47:57.236Z,99829.59
2024-05-09T14:50:32.535Z,99837.50
2024-05-09T14:53:03.590Z,99835.19
2024-05-09T14:55:33.172Z,99817.28
2024-05-09T14:58:04.950Z,99832.56
2024-05-09T15:00:43.216Z,99829.97
2024-05-09T15:03:15.753Z,99834.22
2024-05-09T15:05:42.707Z,99831.66
2024-05-09T15:08:09.400Z,99832.56
2024-05-09T15:10:37.238Z,99830.28
2024-05-09T15:13:06.551Z,99826.72
2024-05-09T15:15:34.914Z,99818.13
2024-05-09T15:18:01.803Z,99824.75
2024-05-09T15:20:34.575Z,99815.84
2024-05-09T15:23:03.926Z,99817.44
2024-05-09T15:25:30.833Z,99808.81
2024-05-09T15:27:57.877Z,99811.53
2024-05-09T15:30:30.680Z,99802.59
2024-05-09T15:33:00.100Z,99799.34
2024-05-09T15:35:26.993Z,99807.47
2024-05-09T15:37:53.718Z,99807.75
2024-05-09T15:40:30.520Z,99804.38
2024-05-09T15:43:04.578Z,99808.72
2024-05-09T15:45:31.559Z,99817.41
2024-05-09T15:47:58.713Z,99815.69
2024-05-09T15:50:35.431Z,99813.06
2024-05-09T15:53:06.679Z,99808.72
2024-05-09T15:55:34.479Z,99805.25
2024-05-09T15:58:02.269Z,99806.78
2024-05-09T16:00:37.321Z,99811.00
2024-05-09T16:03:07.773Z,99808.63
2024-05-09T16:05:34.733Z,99801.28
2024-05-09T16:08:01.899Z,99791.97
2024-05-09T16:10:32.759Z,99812.56
2024-05-09T16:13:01.557Z,99809.19
2024-05-09T16:15:28.599Z,99811.66
2024-05-09T16:17:55.516Z,99801.38
2024-05-09T16:20:33.873Z,99803.16
2024-05-09T16:23:06.075Z,99800.56
2024-05-09T16:25:32.739Z,99805.84
2024-05-09T16:30:33.495Z,99790.75
2024-05-09T16:33:02.826Z,99811.41
2024-05-09T16:35:29.762Z,99806.31
2024-05-09T16:37:57.132Z,99812.38
2024-05-09T16:40:33.055Z,99806.50
2024-05-09T16:43:04.974Z,99802.50
2024-05-09T16:45:31.953Z,99807.53
2024-05-09T16:47:59.719Z,99810.94
2024-05-09T16:50:32.025Z,99801.38
2024-05-09T16:53:00.617Z,99789.63
2024-05-09T16:55:27.423Z,99808.41
2024-05-09T16:57:55.347Z,99814.66
2024-05-09T17:00:31.367Z,99782.50
2024-05-09T17:03:06.588Z,99815.28
2024-05-09T17:05:34.128Z,99810.16
2024-05-09T17:08:01.408Z,99807.88
2024-05-09T17:10:32.876Z,99808.78
2024-05-09T17:13:02.190Z,99810.38
2024-05-09T17:15:29.144Z,99811.50
2024-05-09T17:17:56.229Z,99813.31
2024-05-09T17:20:29.832Z,99811.88
2024-05-09T17:23:02.238Z,99818.94
2024-05-09T17:25:29.302Z,99818.97
2024-05-09T17:27:56.600Z,99813.84
2024-05-09T17:30:31.561Z,99824.44
2024-05-09T17:33:02.656Z,99808.13
2024-05-09T17:35:29.374Z,99816.94
2024-05-09T17:37:56.686Z,99821.66
2024-05-09T17:42:53.155Z,99823.81
2024-05-09T17:45:20.636Z,99816.25
2024-05-09T17:47:47.723Z,99830.91
2024-05-09T17:50:21.014Z,99836.19
2024-05-09T17:52:53.812Z,99828.78
2024-05-09T17:55:21.304Z,99838.81
2024-05-09T17:57:48.220Z,99842.66
2024-05-09T18:00:24.068Z,99843.19
2024-05-09T18:02:56.352Z,99823.06
2024-05-09T18:05:23.424Z,99840.50
2024-05-09T18:07:50.208Z,99847.00
2024-05-09T18:10:25.177Z,99848.28
2024-05-09T18:12:56.609Z,99854.59
2024-05-09T18:15:23.384Z,99853.16
2024-05-09T18:17:51.593Z,99827.84
2024-05-09T18:20:28.590Z,99861.47
2024-05-09T18:23:04.474Z,99858.25
2024-05-09T18:25:31.147Z,99871.31
2024-05-09T18:27:58.128Z,99872.41
2024-05-09T18:30:32.066Z,99876.00
2024-05-09T18:33:01.605Z,99881.25
2024-05-09T18:35:28.333Z,99880.63
2024-05-09T18:37:55.079Z,99861.09
2024-05-09T18:40:31.140Z,99882.50
2024-05-09T18:43:01.992Z,99895.38
2024-05-09T18:45:29.087Z,99895.50
2024-05-09T18:47:56.144Z,99905.00
2024-05-09T18:50:31.933Z,99901.69
2024-05-09T18:53:03.594Z,99907.69
2024-05-09T18:55:30.288Z,99891.50
2024-05-09T18:57:57.224Z,99897.53
2024-05-09T19:00:33.236Z,99918.13
2024-05-09T19:03:05.937Z,99909.56
2024-05-09T19:05:34.860Z,99918.16
2024-05-09T19:08:02.160Z,99928.47
2024-05-09T19:10:33.985Z,99919.06
2024-05-09T19:13:05.406Z,99934.47
2024-05-09T19:15:35.760Z,99924.22
2024-05-09T19:18:02.797Z,99934.47
2024-05-09T19:20:34.256Z,99943.91
2024-05-09T19:23:05.050Z,99925.91
2024-05-09T19:25:32.871Z,99936.19
2024-05-09T19:28:00.470Z,99942.16
2024-05-09T19:30:36.641Z,99947.25
2024-05-09T19:33:07.667Z,99948.13
2024-05-09T19:35:34.554Z,99945.59
2024-05-09T19:38:01.762Z,99950.69
2024-05-09T19:40:31.972Z,99921.53
2024-05-09T19:43:01.684Z,99949.75
2024-05-09T19:45:29.057Z,99933.47
2024-05-09T19:47:56.527Z,99954.75
2024-05-09T19:50:32.119Z,99959.00
2024-05-09T19:53:06.706Z,99965.84
2024-05-09T19:55:33.773Z,99931.50
2024-05-09T19:58:04.845Z,99945.19
2024-05-09T20:00:39.561Z,99973.38
2024-05-09T20:03:09.170Z,99967.31
2024-05-09T20:05:36.760Z,99975.91
2024-05-09T20:08:04.323Z,99980.16
2024-05-09T20:10:33.320Z,99970.78
2024-05-09T20:13:02.624Z,99982.72
2024-05-09T20:15:29.747Z,99986.97
2024-05-09T20:17:56.981Z,99966.31
2024-05-09T20:20:32.712Z,99973.13
2024-05-09T20:23:04.865Z,99997.81
2024-05-09T20:25:31.461Z,99979.78
2024-05-09T20:27:58.106Z,99971.91
2024-05-09T20:30:31.376Z,99994.97
2024-05-09T20:33:00.506Z,99994.88
2024-05-09T20:35:30.523Z,99996.59
2024-05-09T20:37:57.281Z,100008.56
2024-05-09T20:40:29.208Z,100002.44
2024-05-09T20:43:00.287Z,100009.13
2024-05-09T20:45:27.172Z,99979.97
2024-05-09T20:47:54.167Z,99947.19
2024-05-09T20:50:28.860Z,100014.06
2024-05-09T20:53:03.214Z,100006.31
2024-05-09T20:55:30.295Z,100013.09
2024-05-09T20:57:57.455Z,100012.13
2024-05-09T21:00:33.732Z,100010.44
2024-05-09T21:03:06.509Z,100007.78
2024-05-09T21:05:33.951Z,100015.38
2024-05-09T21:08:00.830Z,99993.06
2024-05-09T21:10:32.092Z,100006.72
2024-05-09T21:13:00.310Z,100013.56
2024-05-09T21:15:26.945Z,100018.75
2024-05-09T21:17:53.565Z,100003.38
2024-05-09T21:20:24.420Z,100017.88
2024-05-09T21:22:57.726Z,100016.16
2024-05-09T21:25:24.485Z,100022.97
2024-05-09T21:27:51.564Z,100011.00
2024-05-09T21:30:27.371Z,100016.88
2024-05-09T21:32:59.683Z,100016.78
2024-05-09T21:35:26.399Z,100015.75
2024-05-09T21:37:53.169Z,100023.38
2024-05-09T21:40:30.587Z,100000.94
2024-05-09T21:43:00.929Z,100030.09
2024-05-09T21:45:27.785Z,100025.75
2024-05-09T21:47:54.719Z,100012.75
2024-05-09T21:50:28.051Z,100026.31
2024-05-09T21:52:59.065Z,100031.31
2024-05-09T21:55:25.773Z,100031.19
2024-05-09T21:57:52.524Z,100022.56
2024-05-09T22:00:28.793Z,100025.16
2024-05-09T22:03:02.364Z,100005.41
2024-05-09T22:05:29.630Z,100027.88
2024-05-09T22:07:57.030Z,100029.47
2024-05-09T22:10:30.498Z,100031.16
2024-05-09T22:13:00.732Z,100032.09
2024-05-09T22:15:27.461Z,100003.75
2024-05-09T22:17:55.722Z,100028.63
2024-05-09T22:20:29.269Z,100030.13
2024-05-09T22:23:04.243Z,100029.94
2024-05-09T22:25:32.132Z,100036.66
2024-05-09T22:28:00.033Z,100033.97
2024-05-09T22:30:34.669Z,100035.59
2024-05-09T22:33:05.843Z,100039.78
2024-05-09T22:35:32.849Z,100037.22
2024-05-09T22:37:59.685Z,100024.53
2024-05-09T22:40:38.141Z,100029.66
2024-05-09T22:43:13.293Z,100035.78
2024-05-09T22:45:40.247Z,100029.06
2024-05-09T22:48:08.467Z,100036.66
2024-05-09T22:50:35.386Z,100018.47
2024-05-09T22:53:02.113Z,100043.41
2024-05-09T22:55:29.017Z,100030.75
2024-05-09T22:57:55.972Z,100030.59
2024-05-09T23:00:30.919Z,100042.53
2024-05-09T23:03:00.059Z,100037.47
2024-05-09T23:05:27.071Z,100037.47
2024-05-09T23:07:53.845Z,100042.66
2024-05-09T23:10:27.767Z,100047.91
2024-05-09T23:12:59.295Z,100041.84
2024-05-09T23:15:26.000Z,100048.53
2024-05-09T23:17:52.815Z,100045.03
2024-05-09T23:20:29.837Z,100046.63
2024-05-09T23:23:03.535Z,100036.22
2024-05-09T23:25:30.298Z,100042.16
2024-05-09T23:27:57.146Z,100041.28
2024-05-09T23:30:33.370Z,100044.56
2024-05-09T23:33:05.232Z,100040.25
2024-05-09T23:35:32.233Z,100046.22
2024-05-09T23:37:58.836Z,100043.66
2024-05-09T23:40:36.875Z,100023.84
2024-05-09T23:43:07.084Z,100058.72
2024-05-09T23:45:34.073Z,100029.53
2024-05-09T23:48:01.182Z,100049.25
2024-05-09T23:50:34.394Z,100038.81
2024-05-09T23:53:04.495Z,100052.41
2024-05-09T23:55:32.118Z,100048.06
2024-05-09T23:57:59.292Z,100048.94
